createdAt,value
2019-04-25T00:00:40.578Z,10.50
2019-04-25T00:03:12.932Z,10.50
2019-04-25T00:05:44.696Z,10.50
2019-04-25T00:08:15.541Z,10.50
2019-04-25T00:10:46.060Z,10.50
2019-04-25T00:13:17.490Z,10.60
2019-04-25T00:15:48.244Z,10.50
2019-04-25T00:18:18.994Z,10.60
2019-04-25T00:20:54.292Z,10.50
2019-04-25T00:23:25.073Z,10.50
2019-04-25T00:26:08.075Z,10.40
2019-04-25T00:28:39.154Z,10.20
2019-04-25T00:31:09.964Z,10.10
2019-04-25T00:33:41.992Z,10.00
2019-04-25T00:36:13.025Z,9.90
2019-04-25T00:38:46.427Z,9.80
2019-04-25T00:41:15.963Z,9.70
2019-04-25T00:43:47.439Z,9.70
2019-04-25T00:46:18.614Z,9.60
2019-04-25T00:48:49.816Z,9.50
2019-04-25T00:51:21.831Z,9.50
2019-04-25T00:53:54.886Z,9.50
2019-04-25T00:56:25.464Z,9.50
2019-04-25T00:59:04.953Z,9.60
2019-04-25T01:01:54.121Z,9.50
2019-04-25T01:04:26.623Z,9.60
2019-04-25T01:06:57.894Z,9.50
2019-04-25T01:09:28.883Z,9.30
2019-04-25T01:11:59.398Z,9.20
2019-04-25T01:14:31.937Z,9.20
2019-04-25T01:17:03.194Z,9.00
2019-04-25T01:19:34.477Z,8.90
2019-04-25T01:22:05.353Z,8.80
2019-04-25T01:24:36.379Z,8.70
2019-04-25T01:27:07.385Z,8.60
2019-04-25T01:29:38.319Z,8.60
2019-04-25T01:32:11.175Z,8.80
2019-04-25T01:34:48.551Z,8.80
2019-04-25T01:37:38.563Z,8.70
2019-04-25T01:40:27.082Z,8.70
2019-04-25T01:43:19.263Z,8.80
2019-04-25T01:45:50.218Z,8.70
2019-04-25T01:48:21.257Z,8.80
2019-04-25T01:50:53.906Z,8.90
2019-04-25T01:53:24.614Z,8.70
2019-04-25T01:56:02.361Z,8.50
2019-04-25T01:58:28.000Z,8.30
2019-04-25T02:00:58.737Z,8.40
2019-04-25T02:03:30.012Z,8.30
2019-04-25T02:08:17.025Z,8.00
2019-04-25T02:10:52.285Z,8.00
2019-04-25T02:13:24.596Z,7.90
2019-04-25T02:15:56.000Z,7.80
2019-04-25T02:18:26.944Z,7.70
2019-04-25T02:21:00.234Z,7.60
2019-04-25T02:23:29.862Z,7.70
2019-04-25T02:26:12.382Z,7.70
2019-04-25T02:28:33.845Z,7.70
2019-04-25T02:31:08.664Z,7.60
2019-04-25T02:33:36.679Z,7.50
2019-04-25T02:36:08.593Z,7.40
2019-04-25T02:38:39.486Z,7.40
2019-04-25T02:41:10.100Z,7.30
2019-04-25T02:43:42.168Z,7.30
2019-04-25T02:46:30.882Z,7.50
2019-04-25T02:49:29.352Z,7.70
2019-04-25T02:51:59.170Z,7.90
2019-04-25T02:54:29.244Z,8.20
2019-04-25T02:56:59.980Z,8.30
2019-04-25T02:59:30.689Z,8.30
2019-04-25T03:02:01.195Z,8.30
2019-04-25T03:04:34.544Z,8.40
2019-04-25T03:07:08.112Z,8.60
2019-04-25T03:09:37.094Z,8.60
2019-04-25T03:12:08.991Z,8.60
2019-04-25T03:14:39.925Z,8.50
2019-04-25T03:17:13.992Z,8.40
2019-04-25T03:20:06.517Z,8.30
2019-04-25T03:22:34.796Z,8.40
2019-04-25T03:25:09.984Z,8.50
2019-04-25T03:27:37.993Z,8.30
2019-04-25T03:30:13.258Z,8.20
2019-04-25T03:32:41.306Z,8.20
2019-04-25T03:35:13.618Z,8.20
2019-04-25T03:37:45.034Z,8.20
2019-04-25T03:40:15.442Z,8.10
2019-04-25T03:42:46.064Z,8.10
2019-04-25T03:45:16.720Z,8.00
2019-04-25T03:47:47.378Z,7.90
2019-04-25T03:50:17.815Z,7.70
2019-04-25T03:52:48.462Z,7.80
2019-04-25T03:55:23.971Z,7.80
2019-04-25T03:57:54.829Z,7.80
2019-04-25T04:00:25.217Z,7.70
2019-04-25T04:02:55.764Z,7.90
2019-04-25T04:05:26.320Z,7.80
2019-04-25T04:07:57.388Z,7.70
2019-04-25T04:10:28.213Z,7.70
2019-04-25T04:12:58.796Z,7.70
2019-04-25T04:15:29.270Z,7.60
2019-04-25T04:18:10.974Z,7.70
2019-04-25T04:21:00.225Z,7.70
2019-04-25T04:23:37.405Z,7.90
2019-04-25T04:26:08.171Z,7.80
2019-04-25T04:28:38.684Z,7.90
2019-04-25T04:31:10.221Z,7.80
2019-04-25T04:33:41.086Z,7.90
2019-04-25T04:36:11.878Z,7.90
2019-04-25T04:38:43.813Z,8.10
2019-04-25T04:41:15.422Z,8.30
2019-04-25T04:43:47.353Z,8.30
2019-04-25T04:46:18.801Z,8.40
2019-04-25T04:48:50.378Z,8.30
2019-04-25T04:51:21.240Z,8.40
2019-04-25T04:53:53.717Z,8.40
2019-04-25T04:56:25.760Z,8.70
2019-04-25T04:58:56.558Z,8.90
2019-04-25T05:01:28.823Z,9.10
2019-04-25T05:04:27.095Z,9.40
2019-04-25T05:07:04.474Z,9.30
2019-04-25T05:09:35.115Z,9.40
2019-04-25T05:12:05.790Z,9.40
2019-04-25T05:14:38.389Z,9.30
2019-04-25T05:17:09.132Z,9.40
2019-04-25T05:19:40.044Z,9.60
2019-04-25T05:22:10.820Z,9.60
2019-04-25T05:24:42.012Z,9.60
2019-04-25T05:27:16.683Z,9.60
2019-04-25T05:29:46.507Z,9.60
2019-04-25T05:32:18.170Z,9.70
2019-04-25T05:34:53.274Z,9.90
2019-04-25T05:37:26.441Z,9.90
2019-04-25T05:39:57.181Z,10.10
2019-04-25T05:43:06.283Z,10.00
2019-04-25T05:45:46.976Z,10.10
2019-04-25T05:48:18.946Z,10.10
2019-04-25T05:50:50.920Z,10.10
2019-04-25T05:53:23.856Z,10.50
2019-04-25T05:55:54.575Z,10.40
2019-04-25T05:58:26.984Z,10.40
2019-04-25T06:00:57.920Z,10.60
2019-04-25T06:03:29.031Z,10.60
2019-04-25T06:06:00.375Z,10.70
2019-04-25T06:08:34.145Z,10.80
2019-04-25T06:11:13.521Z,11.10
2019-04-25T06:13:50.879Z,11.20
2019-04-25T06:16:27.043Z,11.30
2019-04-25T06:19:19.661Z,11.30
2019-04-25T06:21:50.234Z,11.30
2019-04-25T06:24:30.247Z,11.50
2019-04-25T06:27:27.048Z,11.70
2019-04-25T06:30:01.885Z,11.80
2019-04-25T06:32:35.308Z,11.90
2019-04-25T06:35:07.365Z,12.00
2019-04-25T06:37:38.142Z,12.10
2019-04-25T06:40:09.258Z,12.20
2019-04-25T06:42:40.032Z,12.10
2019-04-25T06:45:35.820Z,12.20
2019-04-25T06:48:28.993Z,12.30
2019-04-25T06:50:59.963Z,12.70
2019-04-25T06:53:30.639Z,12.70
2019-04-25T06:56:01.681Z,12.80
2019-04-25T06:58:34.100Z,13.00
2019-04-25T07:01:04.950Z,13.10
2019-04-25T07:03:36.032Z,13.30
2019-04-25T07:06:07.193Z,13.30
2019-04-25T07:08:38.013Z,13.40
2019-04-25T07:11:09.135Z,13.50
2019-04-25T07:13:39.851Z,13.70
2019-04-25T07:16:13.273Z,13.70
2019-04-25T07:18:45.389Z,13.90
2019-04-25T07:21:16.112Z,13.90
2019-04-25T07:23:46.814Z,14.00
2019-04-25T07:26:36.516Z,14.00
2019-04-25T07:29:33.702Z,14.10
2019-04-25T07:32:21.273Z,14.20
2019-04-25T07:34:53.582Z,14.50
2019-04-25T07:37:29.827Z,14.50
2019-04-25T07:40:00.497Z,14.60
2019-04-25T07:42:34.251Z,14.80
2019-04-25T07:45:06.620Z,14.90
2019-04-25T07:47:37.973Z,15.00
2019-04-25T07:50:09.191Z,15.10
2019-04-25T07:52:39.830Z,15.20
2019-04-25T07:55:10.806Z,15.30
2019-04-25T07:57:43.720Z,15.30
2019-04-25T08:00:16.679Z,15.60
2019-04-25T08:02:47.859Z,15.70
2019-04-25T08:05:19.349Z,15.90
2019-04-25T08:07:50.401Z,16.00
2019-04-25T08:10:23.894Z,16.10
2019-04-25T08:12:55.057Z,16.30
2019-04-25T08:15:47.242Z,16.60
2019-04-25T08:18:18.186Z,16.90
2019-04-25T08:20:49.181Z,17.30
2019-04-25T08:23:23.786Z,17.70
2019-04-25T08:25:54.551Z,17.90
2019-04-25T08:28:25.336Z,18.00
2019-04-25T08:30:56.123Z,18.10
2019-04-25T08:33:30.071Z,18.20
2019-04-25T08:36:06.611Z,18.20
2019-04-25T08:38:34.749Z,17.90
2019-04-25T08:41:05.901Z,17.80
2019-04-25T08:43:39.444Z,17.70
2019-04-25T08:46:10.614Z,17.90
2019-04-25T08:49:19.925Z,18.00
2019-04-25T08:51:54.364Z,18.40
2019-04-25T08:54:32.079Z,18.20
2019-04-25T08:57:06.540Z,18.10
2019-04-25T08:59:52.330Z,18.10
2019-04-25T09:02:28.817Z,18.20
2019-04-25T09:05:31.866Z,18.60
2019-04-25T09:08:04.228Z,18.70
2019-04-25T09:10:37.369Z,19.10
2019-04-25T09:13:08.561Z,18.90
2019-04-25T09:15:45.504Z,19.10
2019-04-25T09:18:15.172Z,19.00
2019-04-25T09:20:48.355Z,19.50
2019-04-25T09:23:20.967Z,19.60
2019-04-25T09:25:54.387Z,19.80
2019-04-25T09:28:24.850Z,20.20
2019-04-25T09:30:56.126Z,20.00
2019-04-25T09:33:27.403Z,19.70
2019-04-25T09:35:58.381Z,19.50
2019-04-25T09:38:34.793Z,19.30
2019-04-25T09:41:06.919Z,19.10
2019-04-25T09:43:37.618Z,19.30
2019-04-25T09:46:19.578Z,19.10
2019-04-25T09:49:08.010Z,19.10
2019-04-25T09:51:47.016Z,19.20
2019-04-25T09:54:46.351Z,19.20
2019-04-25T09:57:38.989Z,19.30
2019-04-25T10:00:18.262Z,19.80
2019-04-25T10:02:49.030Z,20.20
2019-04-25T10:05:20.396Z,20.00
2019-04-25T10:07:53.352Z,20.00
2019-04-25T10:10:27.717Z,20.30
2019-04-25T10:12:58.952Z,20.30
2019-04-25T10:16:06.321Z,20.40
2019-04-25T10:18:39.313Z,20.90
2019-04-25T10:21:14.354Z,21.40
2019-04-25T10:23:46.800Z,21.50
2019-04-25T10:29:08.507Z,21.10
2019-04-25T10:31:40.721Z,21.10
2019-04-25T10:34:14.098Z,21.50
2019-04-25T10:36:45.473Z,22.10
2019-04-25T10:39:18.178Z,22.00
2019-04-25T10:41:49.668Z,22.00
2019-04-25T10:44:21.541Z,22.20
2019-04-25T10:46:55.662Z,22.30
2019-04-25T10:49:28.110Z,22.30
2019-04-25T10:51:59.362Z,22.40
2019-04-25T10:54:34.960Z,22.20
2019-04-25T10:57:06.689Z,22.40
2019-04-25T11:00:06.316Z,22.80
2019-04-25T11:02:30.693Z,22.90
2019-04-25T11:05:10.098Z,23.30
2019-04-25T11:07:45.276Z,23.60
2019-04-25T11:10:23.815Z,23.60
2019-04-25T11:12:55.215Z,23.20
2019-04-25T11:15:30.242Z,23.10
2019-04-25T11:18:01.383Z,23.30
2019-04-25T11:20:33.898Z,23.30
2019-04-25T11:23:05.266Z,23.20
2019-04-25T11:25:37.987Z,23.30
2019-04-25T11:28:11.585Z,23.50
2019-04-25T11:30:46.721Z,24.00
2019-04-25T11:33:19.462Z,23.60
2019-04-25T11:35:50.297Z,23.20
2019-04-25T11:38:33.902Z,23.30
2019-04-25T11:41:10.593Z,23.60
2019-04-25T11:43:45.354Z,24.00
2019-04-25T11:46:16.877Z,24.20
2019-04-25T11:48:51.350Z,24.30
2019-04-25T11:51:23.862Z,24.30
2019-04-25T11:53:55.541Z,24.10
2019-04-25T11:56:27.659Z,24.20
2019-04-25T11:58:58.467Z,24.40
2019-04-25T12:01:30.334Z,24.10
2019-04-25T12:04:01.721Z,24.20
2019-04-25T12:06:33.492Z,24.00
2019-04-25T12:09:08.217Z,23.60
2019-04-25T12:11:39.826Z,23.40
2019-04-25T12:14:11.055Z,23.10
2019-04-25T12:16:46.095Z,23.10
2019-04-25T12:19:15.772Z,23.00
2019-04-25T12:21:48.203Z,23.30
2019-04-25T12:24:20.012Z,23.20
2019-04-25T12:26:50.947Z,23.50
2019-04-25T12:29:22.222Z,23.30
2019-04-25T12:31:54.836Z,23.10
2019-04-25T12:34:26.525Z,22.80
2019-04-25T12:36:58.663Z,22.80
2019-04-25T12:39:29.841Z,23.00
2019-04-25T12:42:00.912Z,23.20
2019-04-25T12:44:48.835Z,23.50
2019-04-25T12:47:23.906Z,24.10
2019-04-25T12:49:56.365Z,24.80
2019-04-25T12:52:27.578Z,25.10
2019-04-25T12:54:58.245Z,24.50
2019-04-25T12:57:29.663Z,24.70
2019-04-25T13:00:00.336Z,24.60
2019-04-25T13:02:34.487Z,24.80
2019-04-25T13:05:07.078Z,24.70
2019-04-25T13:07:42.252Z,24.40
2019-04-25T13:10:15.728Z,24.20
2019-04-25T13:12:47.126Z,24.20
2019-04-25T13:15:18.916Z,24.50
2019-04-25T13:17:53.623Z,24.60
2019-04-25T13:20:25.685Z,24.70
2019-04-25T13:22:57.237Z,24.80
2019-04-25T13:28:31.229Z,24.90
2019-04-25T13:31:20.852Z,24.70
2019-04-25T13:34:05.793Z,24.70
2019-04-25T13:36:39.099Z,24.80
2019-04-25T13:39:34.285Z,25.00
2019-04-25T13:42:07.791Z,25.00
2019-04-25T13:44:44.304Z,25.40
2019-04-25T13:47:16.211Z,25.50
2019-04-25T13:49:48.587Z,25.60
2019-04-25T13:52:21.208Z,25.70
2019-04-25T13:54:53.777Z,25.40
2019-04-25T13:57:25.268Z,25.40
2019-04-25T13:59:57.327Z,25.40
2019-04-25T14:02:29.482Z,25.00
2019-04-25T14:05:05.340Z,24.80
2019-04-25T14:07:37.766Z,24.70
2019-04-25T14:10:09.539Z,24.30
2019-04-25T14:12:40.883Z,24.50
2019-04-25T14:15:18.808Z,24.50
2019-04-25T14:18:07.308Z,24.40
2019-04-25T14:20:42.351Z,25.00
2019-04-25T14:23:15.056Z,25.30
2019-04-25T14:25:46.465Z,25.10
2019-04-25T14:28:18.397Z,24.70
2019-04-25T14:30:53.753Z,24.50
2019-04-25T14:33:30.578Z,24.80
2019-04-25T14:36:03.227Z,25.20
2019-04-25T14:38:35.784Z,25.80
2019-04-25T14:41:07.801Z,26.20
2019-04-25T14:43:39.862Z,25.90
2019-04-25T14:46:11.809Z,25.40
2019-04-25T14:48:46.269Z,25.00
2019-04-25T14:51:17.803Z,24.80
2019-04-25T14:53:53.717Z,24.90
2019-04-25T14:56:44.182Z,24.90
2019-04-25T14:59:16.043Z,25.10
2019-04-25T15:01:50.789Z,25.40
2019-04-25T15:04:25.971Z,25.50
2019-04-25T15:06:57.206Z,25.40
2019-04-25T15:09:30.474Z,25.80
2019-04-25T15:12:03.058Z,26.20
2019-04-25T15:14:35.703Z,26.60
2019-04-25T15:17:11.087Z,27.00
2019-04-25T15:19:42.137Z,27.40
2019-04-25T15:22:13.038Z,27.70
2019-04-25T15:24:43.755Z,27.40
2019-04-25T15:27:14.453Z,27.40
2019-04-25T15:29:45.202Z,27.20
2019-04-25T15:32:18.599Z,27.20
2019-04-25T15:34:55.156Z,26.60
2019-04-25T15:37:51.047Z,26.20
2019-04-25T15:40:36.748Z,26.50
2019-04-25T15:43:27.632Z,26.60
2019-04-25T15:46:08.109Z,26.30
2019-04-25T15:48:41.357Z,25.70
2019-04-25T15:51:12.144Z,25.40
2019-04-25T15:53:43.587Z,25.20
2019-04-25T15:56:15.185Z,25.00
2019-04-25T15:58:46.301Z,25.20
2019-04-25T16:01:19.169Z,25.30
2019-04-25T16:03:52.439Z,25.40
2019-04-25T16:06:22.940Z,25.20
2019-04-25T16:08:54.203Z,25.30
2019-04-25T16:11:26.554Z,25.20
2019-04-25T16:13:57.489Z,25.20
2019-04-25T16:16:41.262Z,25.90
2019-04-25T16:19:13.668Z,26.30
2019-04-25T16:21:44.766Z,26.20
2019-04-25T16:24:16.334Z,26.30
2019-04-25T16:26:47.690Z,26.10
2019-04-25T16:29:18.999Z,25.70
2019-04-25T16:31:50.478Z,24.90
2019-04-25T16:34:21.838Z,24.70
2019-04-25T16:36:53.837Z,24.80
2019-04-25T16:39:26.687Z,24.80
2019-04-25T16:41:57.489Z,24.60
2019-04-25T16:44:29.898Z,24.30
2019-04-25T16:47:02.780Z,24.20
2019-04-25T16:49:35.257Z,24.00
2019-04-25T16:52:17.633Z,24.10
2019-04-25T16:54:55.685Z,24.50
2019-04-25T16:58:03.773Z,24.90
2019-04-25T17:01:07.017Z,24.90
2019-04-25T17:03:43.420Z,24.90
2019-04-25T17:06:16.751Z,25.60
2019-04-25T17:08:50.863Z,25.60
2019-04-25T17:11:22.392Z,25.30
2019-04-25T17:14:15.298Z,25.20
2019-04-25T17:17:19.290Z,25.00
2019-04-25T17:20:04.083Z,25.00
2019-04-25T17:22:35.565Z,24.70
2019-04-25T17:25:07.089Z,24.40
2019-04-25T17:27:39.173Z,24.10
2019-04-25T17:30:11.888Z,23.90
2019-04-25T17:32:53.852Z,23.70
2019-04-25T17:35:40.911Z,23.60
2019-04-25T17:38:19.531Z,23.60
2019-04-25T17:40:53.659Z,23.80
2019-04-25T17:43:24.867Z,23.80
2019-04-25T17:46:25.244Z,23.80
2019-04-25T17:48:59.240Z,23.60
2019-04-25T17:51:36.650Z,23.70
2019-04-25T17:54:08.847Z,24.20
2019-04-25T17:57:00.989Z,24.60
2019-04-25T17:59:36.908Z,24.00
2019-04-25T18:02:09.318Z,24.20
2019-04-25T18:04:42.490Z,24.40
2019-04-25T18:07:13.514Z,24.50
2019-04-25T18:09:45.674Z,24.40
2019-04-25T18:12:19.785Z,23.50
2019-04-25T18:14:54.166Z,22.80
2019-04-25T18:17:25.348Z,22.30
2019-04-25T18:20:04.470Z,22.00
2019-04-25T18:22:52.597Z,21.70
2019-04-25T18:26:00.475Z,21.40
2019-04-25T18:28:36.155Z,21.20
2019-04-25T18:31:07.850Z,21.00
2019-04-25T18:33:39.438Z,20.80
2019-04-25T18:36:38.044Z,20.70
2019-04-25T18:39:20.281Z,20.60
2019-04-25T18:42:10.215Z,20.40
2019-04-25T18:44:41.945Z,20.30
2019-04-25T18:47:12.786Z,20.20
2019-04-25T18:49:45.241Z,20.10
2019-04-25T18:52:47.208Z,20.00
2019-04-25T18:55:29.970Z,20.00
2019-04-25T18:58:07.843Z,19.90
2019-04-25T19:00:52.825Z,19.90
2019-04-25T19:03:43.643Z,19.80
2019-04-25T19:06:26.803Z,19.70
2019-04-25T19:08:58.065Z,19.60
2019-04-25T19:11:29.944Z,19.50
2019-04-25T19:14:00.381Z,19.40
2019-04-25T19:16:32.599Z,19.20
2019-04-25T19:19:03.514Z,19.10
2019-04-25T19:21:34.527Z,19.00
2019-04-25T19:24:06.006Z,18.90
2019-04-25T19:26:39.256Z,18.80
2019-04-25T19:29:13.499Z,18.70
2019-04-25T19:31:46.342Z,18.60
2019-04-25T19:34:17.560Z,18.50
2019-04-25T19:36:49.081Z,18.30
2019-04-25T19:39:21.180Z,18.10
2019-04-25T19:42:09.967Z,17.90
2019-04-25T19:44:41.042Z,17.70
2019-04-25T19:47:11.907Z,17.60
2019-04-25T19:49:43.004Z,17.40
2019-04-25T19:52:14.315Z,17.40
2019-04-25T19:54:52.715Z,17.30
2019-04-25T19:57:23.750Z,17.30
2019-04-25T19:59:54.333Z,17.20
2019-04-25T20:02:47.224Z,17.00
2019-04-25T20:05:30.730Z,16.80
2019-04-25T20:08:08.384Z,16.60
2019-04-25T20:10:47.241Z,16.50
2019-04-25T20:13:18.086Z,16.30
2019-04-25T20:15:51.782Z,16.20
2019-04-25T20:18:22.385Z,16.20
2019-04-25T20:20:52.939Z,16.00
2019-04-25T20:23:23.579Z,16.00
2019-04-25T20:25:56.285Z,15.90
2019-04-25T20:28:26.715Z,15.80
2019-04-25T20:30:57.260Z,15.80
2019-04-25T20:33:27.917Z,15.90
2019-04-25T20:35:59.635Z,15.90
2019-04-25T20:38:30.223Z,15.80
2019-04-25T20:41:00.929Z,15.60
2019-04-25T20:43:31.351Z,15.50
2019-04-25T20:46:02.092Z,15.50
2019-04-25T20:48:32.521Z,15.80
2019-04-25T20:51:03.046Z,16.10
2019-04-25T20:53:33.542Z,16.20
2019-04-25T20:56:04.421Z,16.40
2019-04-25T20:58:34.895Z,16.50
2019-04-25T21:01:05.389Z,16.60
2019-04-25T21:03:35.970Z,16.70
2019-04-25T21:06:12.356Z,16.70
2019-04-25T21:08:43.026Z,16.50
2019-04-25T21:11:13.546Z,16.40
2019-04-25T21:14:02.155Z,16.30
2019-04-25T21:16:51.862Z,16.20
2019-04-25T21:19:27.080Z,16.10
2019-04-25T21:21:58.536Z,16.00
2019-04-25T21:24:29.306Z,16.00
2019-04-25T21:26:59.755Z,15.90
2019-04-25T21:29:30.618Z,15.80
2019-04-25T21:32:01.105Z,15.70
2019-04-25T21:34:32.027Z,15.60
2019-04-25T21:37:03.116Z,15.50
2019-04-25T21:39:46.805Z,15.50
2019-04-25T21:42:30.701Z,15.40
2019-04-25T21:45:02.701Z,15.40
2019-04-25T21:47:33.405Z,15.30
2019-04-25T21:50:04.944Z,15.20
2019-04-25T21:52:35.909Z,15.20
2019-04-25T21:55:07.109Z,15.10
2019-04-25T21:57:37.985Z,15.00
2019-04-25T22:00:11.647Z,15.00
2019-04-25T22:02:43.585Z,15.00
2019-04-25T22:05:14.488Z,14.90
2019-04-25T22:07:45.333Z,14.90
2019-04-25T22:10:17.455Z,14.90
2019-04-25T22:12:48.000Z,14.90
2019-04-25T22:15:20.156Z,14.70
2019-04-25T22:17:50.795Z,14.80
2019-04-25T22:20:21.275Z,14.80
2019-04-25T22:22:51.889Z,14.70
2019-04-25T22:25:22.378Z,14.80
2019-04-25T22:27:53.564Z,14.80
2019-04-25T22:30:24.056Z,14.70
2019-04-25T22:33:01.749Z,14.70
2019-04-25T22:35:42.714Z,14.60
2019-04-25T22:38:13.454Z,14.60
2019-04-25T22:40:43.853Z,14.60
2019-04-25T22:43:15.087Z,14.50
2019-04-25T22:45:45.876Z,14.50
2019-04-25T22:48:17.971Z,14.50
2019-04-25T22:50:48.734Z,14.40
2019-04-25T22:53:22.905Z,14.40
2019-04-25T22:55:51.239Z,14.30
2019-04-25T22:58:24.212Z,14.30
2019-04-25T23:00:55.789Z,14.30
2019-04-25T23:03:36.109Z,14.20
2019-04-25T23:06:07.626Z,14.10
2019-04-25T23:08:38.485Z,14.10
2019-04-25T23:11:08.926Z,14.10
2019-04-25T23:13:40.414Z,14.00
2019-04-25T23:16:11.245Z,14.10
2019-04-25T23:18:41.670Z,14.10
2019-04-25T23:21:12.459Z,14.10
2019-04-25T23:23:43.003Z,14.00
2019-04-25T23:26:44.584Z,14.10
2019-04-25T23:29:17.342Z,14.00
2019-04-25T23:31:47.804Z,14.00
2019-04-25T23:34:18.496Z,13.90
2019-04-25T23:36:48.900Z,13.80
2019-04-25T23:39:19.334Z,13.70
2019-04-25T23:41:49.731Z,13.70
2019-04-25T23:44:20.165Z,13.70
2019-04-25T23:46:50.922Z,13.60
2019-04-25T23:49:21.482Z,13.60
2019-04-25T23:51:52.371Z,13.50
2019-04-25T23:54:22.794Z,13.40
2019-04-25T23:56:53.247Z,13.40
2019-04-25T23:59:23.684Z,13.30
